Time;durP1;ratioP1;P1;durP2;ratioP2;P2;SDS_P1;SDS_P2;PMS_P1;PMS_P2;Temp;Humidity;BMP_temperature;BMP_pressure;BME280_temperature;BME280_humidity;BME280_pressure;Samples;Min_cycle;Max_cycle;Signal;HPM_P1;HPM_P2
2022/06/05 00:00:21;;;;;;;12.57;11.67;;;;;;;13.40;100.00;97287.81;4914259;29;20215;-57
2022/06/05 00:02:59;;;;;;;13.90;12.90;;;;;;;13.45;100.00;97283.56;4891520;29;20704;-56
2022/06/05 00:05:31;;;;;;;14.10;12.97;;;;;;;13.50;100.00;97284.81;4916904;29;20306;-57
2022/06/05 00:08:07;;;;;;;13.90;12.77;;;;;;;13.46;100.00;97271.91;4912443;29;20651;-59
2022/06/05 00:10:40;;;;;;;13.20;12.20;;;;;;;13.30;100.00;97277.56;4882877;29;20304;-61
2022/06/05 00:13:14;;;;;;;13.83;12.83;;;;;;;13.09;100.00;97278.50;4907004;29;20242;-55
2022/06/05 00:15:42;;;;;;;13.33;12.27;;;;;;;13.17;100.00;97275.66;4908873;29;20342;-55
2022/06/05 00:18:11;;;;;;;13.40;12.40;;;;;;;13.03;100.00;97274.78;4894377;29;21498;-57
2022/06/05 00:20:41;;;;;;;13.23;12.23;;;;;;;13.09;100.00;97262.53;4912772;29;20282;-62
2022/06/05 00:23:11;;;;;;;17.93;14.87;;;;;;;13.16;100.00;97266.03;4914460;29;20297;-56
2022/06/05 00:25:43;;;;;;;13.50;12.40;;;;;;;13.18;100.00;97254.16;4916554;29;20258;-56
2022/06/05 00:28:16;;;;;;;12.90;11.70;;;;;;;13.17;100.00;97249.88;4873392;29;20923;-56
2022/06/05 00:30:53;;;;;;;13.37;12.37;;;;;;;13.15;100.00;97241.28;4918126;29;20286;-58
2022/06/05 00:33:29;;;;;;;12.90;11.90;;;;;;;13.17;100.00;97239.22;4897326;29;20321;-58
2022/06/05 00:36:01;;;;;;;12.37;11.47;;;;;;;13.09;100.00;97238.59;4915527;29;20230;-60
2022/06/05 00:38:38;;;;;;;11.83;10.83;;;;;;;13.08;100.00;97239.63;4917072;29;20261;-57
2022/06/05 00:41:23;;;;;;;11.97;10.97;;;;;;;13.00;100.00;97236.09;4914284;29;20298;-59
2022/06/05 00:43:54;;;;;;;12.27;11.37;;;;;;;13.04;100.00;97236.53;4873387;29;20258;-59
2022/06/05 00:46:23;;;;;;;11.50;10.67;;;;;;;12.97;100.00;97243.66;4914085;29;20211;-58
2022/06/05 00:48:51;;;;;;;12.50;11.60;;;;;;;12.79;100.00;97238.88;4916249;29;20212;-60
2022/06/05 00:51:20;;;;;;;11.13;10.33;;;;;;;12.83;100.00;97248.09;4899513;29;21120;-57
2022/06/05 00:53:50;;;;;;;11.67;10.67;;;;;;;12.72;100.00;97244.16;4914120;29;20382;-59
2022/06/05 00:56:19;;;;;;;11.47;10.70;;;;;;;12.74;100.00;97236.78;4908832;29;20258;-54
2022/06/05 00:58:47;;;;;;;12.00;10.97;;;;;;;12.65;100.00;97237.97;4876536;29;20355;-55
2022/06/05 01:01:15;;;;;;;12.70;11.77;;;;;;;12.66;100.00;97236.97;4912309;29;20259;-56
2022/06/05 01:03:44;;;;;;;11.10;10.30;;;;;;;12.62;100.00;97233.84;4920119;29;20250;-57
2022/06/05 01:06:13;;;;;;;12.53;11.43;;;;;;;12.61;100.00;97240.19;4896336;29;20474;-58
2022/06/05 01:08:41;;;;;;;11.77;10.87;;;;;;;12.60;100.00;97249.19;4919555;29;20220;-56
2022/06/05 01:11:15;;;;;;;12.60;11.70;;;;;;;12.64;100.00;97252.28;4912112;29;20242;-58
2022/06/05 01:13:58;;;;;;;12.83;11.83;;;;;;;12.62;100.00;97244.50;4872871;28;20391;-59
2022/06/05 01:16:29;;;;;;;12.40;11.20;;;;;;;12.74;100.00;97242.94;4918445;29;20322;-57
2022/06/05 01:19:09;;;;;;;13.17;12.13;;;;;;;12.73;100.00;97235.16;4920788;29;20216;-53
2022/06/05 01:21:52;;;;;;;12.73;11.83;;;;;;;12.68;100.00;97242.91;4899557;29;20581;-58
2022/06/05 01:24:32;;;;;;;12.23;11.37;;;;;;;12.83;100.00;97248.91;4903391;29;20229;-59
2022/06/05 01:27:04;;;;;;;12.77;11.77;;;;;;;12.85;100.00;97249.53;4916074;29;20529;-60
2022/06/05 01:29:37;;;;;;;12.77;11.87;;;;;;;12.80;100.00;97240.50;4872336;29;20743;-59
2022/06/05 01:32:09;;;;;;;11.67;10.83;;;;;;;12.71;100.00;97230.03;4918925;29;20211;-56
2022/06/05 01:34:43;;;;;;;13.33;12.43;;;;;;;12.74;100.00;97232.31;4915863;29;20873;-57
2022/06/05 01:37:16;;;;;;;12.53;11.43;;;;;;;12.77;100.00;97224.97;4897864;29;20270;-59
2022/06/05 01:39:48;;;;;;;12.73;11.73;;;;;;;12.73;100.00;97224.53;4917773;29;20530;-58
2022/06/05 01:42:21;;;;;;;13.03;12.03;;;;;;;12.68;100.00;97234.94;4917717;29;20766;-58
2022/06/05 01:44:51;;;;;;;11.93;11.13;;;;;;;12.54;100.00;97242.84;4870849;29;20211;-59
2022/06/05 01:47:22;;;;;;;13.87;12.83;;;;;;;12.72;100.00;97244.97;4912208;29;20326;-59
2022/06/05 01:49:54;;;;;;;12.57;11.67;;;;;;;12.64;100.00;97244.31;4916125;29;20641;-57
2022/06/05 01:52:26;;;;;;;13.30;12.30;;;;;;;12.56;100.00;97235.47;4900550;29;20786;-59
2022/06/05 01:55:00;;;;;;;13.87;12.83;;;;;;;12.66;100.00;97208.53;4920714;29;20700;-56
2022/06/05 01:58:21;;;;;;;13.97;12.97;;;;;;;12.52;100.00;97212.97;4907606;28;20356;-58
2022/06/05 02:00:54;;;;;;;13.37;12.37;;;;;;;12.49;100.00;97209.88;4866548;28;20215;-57
2022/06/05 02:03:25;;;;;;;13.43;12.43;;;;;;;12.49;100.00;97207.22;4916064;29;20906;-58
2022/06/05 02:05:55;;;;;;;14.03;13.03;;;;;;;12.38;100.00;97209.41;4918761;29;20624;-60
2022/06/05 02:08:27;;;;;;;13.03;12.13;;;;;;;12.40;100.00;97204.72;4864319;29;20222;-57
2022/06/05 02:10:59;;;;;;;14.73;13.63;;;;;;;12.36;100.00;97215.91;4917743;29;20975;-59
2022/06/05 02:13:27;;;;;;;15.30;14.20;;;;;;;12.34;100.00;97216.13;4917089;29;20263;-57
2022/06/05 02:15:57;;;;;;;14.57;13.50;;;;;;;12.37;100.00;97223.72;4868657;29;20215;-58
2022/06/05 02:18:26;;;;;;;15.77;14.47;;;;;;;12.51;100.00;97224.63;4914261;29;20307;-57
2022/06/05 02:20:55;;;;;;;16.40;15.20;;;;;;;12.63;100.00;97224.06;4919669;29;20210;-59
2022/06/05 02:23:25;;;;;;;15.30;14.10;;;;;;;12.54;100.00;97210.94;4897265;29;20254;-58
2022/06/05 02:25:53;;;;;;;15.77;14.57;;;;;;;12.51;100.00;97210.50;4915155;29;20307;-60
2022/06/05 02:28:21;;;;;;;16.23;15.00;;;;;;;12.46;100.00;97197.78;4924065;29;20211;-56
2022/06/05 02:30:56;;;;;;;16.17;14.97;;;;;;;12.55;100.00;97198.44;4896307;29;20215;-60
2022/06/05 02:33:33;;;;;;;16.80;15.50;;;;;;;12.60;100.00;97193.38;4893537;28;20238;-59
2022/06/05 02:36:08;;;;;;;16.13;14.93;;;;;;;12.44;100.00;97194.50;4919229;29;20918;-58
2022/06/05 02:38:45;;;;;;;17.20;15.70;;;;;;;12.44;100.00;97192.69;4894401;29;20439;-54
2022/06/05 02:41:20;;;;;;;16.80;15.50;;;;;;;12.52;100.00;97191.72;4921324;29;20246;-60
2022/06/05 02:46:39;;;;;;;16.90;15.60;;;;;;;12.64;100.00;97199.13;4869761;28;21974;-59
2022/06/05 02:49:15;;;;;;;16.10;14.87;;;;;;;12.50;100.00;97182.28;4913286;29;20241;-59
2022/06/05 02:51:44;;;;;;;17.23;15.93;;;;;;;12.64;100.00;97180.50;4915417;29;20218;-59
2022/06/05 02:54:20;;;;;;;16.53;15.23;;;;;;;12.57;100.00;97181.31;4889861;29;20254;-59
2022/06/05 02:56:48;;;;;;;17.17;15.50;;;;;;;12.68;100.00;97174.59;4913367;29;20501;-58
2022/06/05 02:59:17;;;;;;;19.80;18.20;;;;;;;12.90;100.00;97166.50;4914216;29;20214;-56
2022/06/05 03:04:32;;;;;;;18.90;17.33;;;;;;;12.79;100.00;97165.22;4862235;29;20744;-58
2022/06/05 03:07:00;;;;;;;18.30;16.80;;;;;;;12.84;100.00;97165.47;4919711;29;20465;-58
2022/06/05 03:09:28;;;;;;;19.07;17.57;;;;;;;12.93;100.00;97155.47;4890358;29;20805;-60
2022/06/05 03:11:56;;;;;;;19.40;17.70;;;;;;;12.95;100.00;97158.75;4909071;28;20423;-59
2022/06/05 03:14:25;;;;;;;20.10;18.27;;;;;;;13.07;100.00;97150.19;4909744;29;20739;-58
2022/06/05 03:16:53;;;;;;;22.23;20.37;;;;;;;13.34;100.00;97147.59;4912856;29;20247;-57
2022/06/05 03:19:22;;;;;;;23.97;21.97;;;;;;;13.68;100.00;97143.97;4864283;29;20655;-57
2022/06/05 03:21:51;;;;;;;24.90;22.73;;;;;;;13.80;100.00;97135.34;4915635;29;20286;-54
2022/06/05 03:24:20;;;;;;;25.00;22.83;;;;;;;13.90;100.00;97133.09;4899316;29;20456;-57
2022/06/05 03:26:48;;;;;;;25.33;23.10;;;;;;;14.00;100.00;97135.34;4914611;29;20733;-60
2022/06/05 03:29:16;;;;;;;23.67;21.63;;;;;;;14.00;100.00;97130.81;4915027;29;20208;-60
2022/06/05 03:31:44;;;;;;;22.13;20.33;;;;;;;14.11;100.00;97141.88;4910551;29;20407;-60
2022/06/05 03:34:12;;;;;;;22.40;20.50;;;;;;;14.13;100.00;97127.31;4862906;29;20629;-56
2022/06/05 03:36:41;;;;;;;21.13;19.43;;;;;;;14.11;100.00;97117.91;4913610;29;20858;-60
2022/06/05 03:39:10;;;;;;;22.10;20.17;;;;;;;14.14;100.00;97114.81;4908539;29;20207;-58
2022/06/05 03:41:39;;;;;;;20.67;18.87;;;;;;;14.22;100.00;97116.47;4886620;29;20360;-54
2022/06/05 03:44:07;;;;;;;20.80;19.10;;;;;;;14.27;100.00;97109.47;4907695;28;20323;-57
2022/06/05 03:46:38;;;;;;;21.10;19.50;;;;;;;14.28;100.00;97105.75;4913599;29;20222;-58
2022/06/05 03:49:10;;;;;;;20.90;19.20;;;;;;;14.27;100.00;97098.78;4881153;29;20792;-58
2022/06/05 03:51:39;;;;;;;17.77;16.47;;;;;;;14.31;100.00;97092.00;4913656;29;20255;-60
2022/06/05 03:54:07;;;;;;;18.60;17.00;;;;;;;14.39;100.00;97092.81;4917242;28;20271;-58
2022/06/05 03:56:37;;;;;;;18.03;16.43;;;;;;;14.40;100.00;97094.47;4896917;29;20352;-60
2022/06/05 03:59:05;;;;;;;18.03;16.53;;;;;;;14.41;100.00;97099.56;4914530;29;20246;-57
2022/06/05 04:01:34;;;;;;;18.30;16.83;;;;;;;14.47;100.00;97096.06;4910549;29;20294;-55
2022/06/05 04:04:02;;;;;;;16.73;15.53;;;;;;;14.53;100.00;97105.06;4918509;28;20545;-58
2022/06/05 04:06:31;;;;;;;16.27;14.97;;;;;;;14.56;100.00;97101.97;4862340;29;20587;-57
2022/06/05 04:09:01;;;;;;;16.37;15.17;;;;;;;14.59;100.00;97090.88;4910023;29;20278;-58
2022/06/05 04:11:31;;;;;;;16.50;15.20;;;;;;;14.69;100.00;97090.44;4915980;29;20270;-58
2022/06/05 04:14:01;;;;;;;15.63;14.43;;;;;;;14.62;100.00;97090.47;4898450;28;20262;-57
2022/06/05 04:16:31;;;;;;;17.27;15.87;;;;;;;14.73;100.00;97097.00;4918249;29;20959;-61
2022/06/05 04:19:01;;;;;;;16.80;15.53;;;;;;;14.78;100.00;97104.38;4919861;29;20235;-58
2022/06/05 04:21:31;;;;;;;16.17;14.83;;;;;;;14.93;100.00;97112.09;4881748;28;20996;-59
2022/06/05 04:23:59;;;;;;;14.90;13.80;;;;;;;14.93;100.00;97104.06;4914669;28;20263;-58
2022/06/05 04:26:30;;;;;;;15.43;14.20;;;;;;;15.04;100.00;97099.91;4918513;29;21917;-57
2022/06/05 04:28:58;;;;;;;15.40;14.10;;;;;;;15.13;100.00;97100.50;4892764;29;21255;-58
2022/06/05 04:31:29;;;;;;;15.03;13.93;;;;;;;15.16;100.00;97097.38;4914812;29;20211;-58
2022/06/05 04:33:59;;;;;;;14.57;13.53;;;;;;;15.31;100.00;97092.53;4868553;28;20239;-63
2022/06/05 04:36:28;;;;;;;14.90;13.80;;;;;;;15.32;100.00;97086.16;4870148;29;20818;-58
2022/06/05 04:38:56;;;;;;;13.93;12.83;;;;;;;15.35;100.00;97084.94;4892712;29;20708;-60
2022/06/05 04:41:25;;;;;;;14.03;12.93;;;;;;;15.41;100.00;97086.72;4913920;29;20302;-55
2022/06/05 04:43:55;;;;;;;13.83;12.83;;;;;;;15.44;100.00;97088.97;4919053;28;20294;-61
2022/06/05 04:46:25;;;;;;;13.77;12.67;;;;;;;15.59;100.00;97090.50;4898785;29;21020;-62
2022/06/05 04:48:56;;;;;;;13.57;12.37;;;;;;;15.63;100.00;97094.38;4914519;29;20247;-62
2022/06/05 04:51:24;;;;;;;11.97;11.17;;;;;;;15.67;100.00;97076.03;4918945;29;20440;-59
2022/06/05 04:53:53;;;;;;;12.50;11.53;;;;;;;15.67;100.00;97087.56;4859945;29;20295;-61
2022/06/05 04:56:24;;;;;;;13.00;12.13;;;;;;;15.82;100.00;97087.22;4911959;29;20378;-62
2022/06/05 04:58:53;;;;;;;11.63;10.73;;;;;;;15.86;100.00;97087.56;4915134;29;20258;-60
2022/06/05 05:01:25;;;;;;;11.53;10.73;;;;;;;15.89;100.00;97092.50;4888493;29;20235;-59
2022/06/05 05:03:57;;;;;;;12.10;11.20;;;;;;;15.93;100.00;97090.22;4915956;28;20875;-60
2022/06/05 05:06:25;;;;;;;12.33;11.33;;;;;;;16.05;100.00;97088.44;4915619;29;20211;-58
2022/06/05 05:08:54;;;;;;;11.70;10.80;;;;;;;16.06;100.00;97076.72;4855772;29;20242;-60
2022/06/05 05:11:23;;;;;;;11.77;10.97;;;;;;;15.94;100.00;97074.00;4914594;29;20236;-60
2022/06/05 05:13:52;;;;;;;10.80;10.07;;;;;;;16.08;100.00;97063.94;4917671;28;20232;-58
2022/06/05 05:16:20;;;;;;;12.67;11.73;;;;;;;16.28;100.00;97057.56;4891964;29;20758;-59
2022/06/05 05:18:48;;;;;;;13.43;12.23;;;;;;;16.49;100.00;97048.28;4913648;29;20862;-58
2022/06/05 05:21:20;;;;;;;11.77;10.77;;;;;;;16.76;100.00;97046.06;4914243;29;20978;-56
2022/06/05 05:23:49;;;;;;;10.53;9.73;;;;;;;16.95;100.00;97055.88;4880389;29;20259;-55
2022/06/05 05:26:19;;;;;;;11.23;10.43;;;;;;;17.41;100.00;97034.84;4888662;29;20231;-58
2022/06/05 05:28:48;;;;;;;10.80;10.00;;;;;;;17.67;100.00;97032.75;4920371;29;20644;-57
2022/06/05 05:31:18;;;;;;;10.67;9.97;;;;;;;17.91;100.00;97015.59;4891959;29;20261;-60
2022/06/05 05:33:49;;;;;;;10.20;9.43;;;;;;;18.20;100.00;97009.53;4915130;28;20231;-56
2022/06/05 05:36:19;;;;;;;11.33;10.53;;;;;;;18.22;100.00;97002.84;4910891;29;20482;-58
2022/06/05 05:44:21;;;;;;;10.17;9.47;;;;;;;18.35;100.00;97009.00;4913172;29;20263;-53
2022/06/05 05:46:49;;;;;;;11.67;10.87;;;;;;;18.46;100.00;97023.41;4894555;29;20294;-57
2022/06/05 05:49:17;;;;;;;10.07;9.37;;;;;;;18.53;100.00;97013.34;4918355;29;20291;-56
2022/06/05 05:51:47;;;;;;;10.17;9.47;;;;;;;18.37;100.00;96998.84;4921994;29;20298;-53
2022/06/05 05:54:15;;;;;;;10.27;9.57;;;;;;;18.40;100.00;96989.50;4876338;29;20787;-53
2022/06/05 05:56:43;;;;;;;10.40;9.60;;;;;;;18.29;100.00;96978.59;4917209;29;20208;-56
2022/06/05 05:59:12;;;;;;;10.80;10.00;;;;;;;18.31;100.00;96981.03;4909440;29;21478;-57
2022/06/05 06:01:40;;;;;;;11.17;10.27;;;;;;;18.32;100.00;96986.16;4905843;29;20293;-56
2022/06/05 06:04:08;;;;;;;14.13;10.20;;;;;;;18.23;100.00;96991.06;4903389;29;21169;-54
2022/06/05 06:06:41;;;;;;;10.10;9.40;;;;;;;18.29;100.00;96986.63;4917205;29;20235;-54
2022/06/05 06:09:11;;;;;;;10.50;9.80;;;;;;;18.31;100.00;96987.22;4913396;29;20239;-59
2022/06/05 06:11:39;;;;;;;10.53;9.90;;;;;;;18.13;100.00;97001.59;4875468;29;20222;-55
2022/06/05 06:14:08;;;;;;;10.77;9.97;;;;;;;18.07;100.00;97007.91;4918415;28;20954;-59
2022/06/05 06:16:36;;;;;;;12.07;11.03;;;;;;;18.35;100.00;97000.94;4901846;29;20305;-59
2022/06/05 06:19:05;;;;;;;10.13;9.43;;;;;;;18.43;100.00;97002.44;4909379;29;20223;-57
2022/06/05 06:21:33;;;;;;;9.73;9.03;;;;;;;18.66;100.00;97004.22;4920868;29;20216;-59
2022/06/05 06:24:11;;;;;;;10.87;10.10;;;;;;;18.58;100.00;97001.91;4909295;29;20315;-53
2022/06/05 06:26:39;;;;;;;10.20;9.50;;;;;;;19.01;100.00;97005.91;4880908;29;20255;-61
2022/06/05 06:29:07;;;;;;;9.90;9.20;;;;;;;19.31;100.00;97009.34;4918728;29;20279;-56
2022/06/05 06:31:38;;;;;;;9.83;9.13;;;;;;;18.98;100.00;97009.09;4916717;29;20311;-57
2022/06/05 06:34:06;;;;;;;10.90;10.10;;;;;;;18.59;100.00;97006.22;4895214;28;20244;-61
2022/06/05 06:36:35;;;;;;;10.50;9.80;;;;;;;18.42;100.00;97000.81;4919540;29;20254;-59
2022/06/05 06:39:21;;;;;;;9.63;8.90;;;;;;;18.45;100.00;97000.34;4906500;29;21079;-53
2022/06/05 06:41:50;;;;;;;9.73;9.13;;;;;;;18.14;100.00;96999.72;4880682;29;20350;-61
2022/06/05 06:44:18;;;;;;;9.93;9.30;;;;;;;18.25;100.00;96996.22;4918856;29;20918;-60
2022/06/05 06:46:47;;;;;;;10.13;9.43;;;;;;;18.39;100.00;96980.66;4916247;29;20218;-57
2022/06/05 06:49:16;;;;;;;10.17;9.40;;;;;;;18.91;100.00;96987.72;4899706;29;20330;-57
2022/06/05 06:51:44;;;;;;;9.63;8.83;;;;;;;19.22;100.00;96976.72;4919181;29;20215;-60
2022/06/05 06:54:12;;;;;;;10.17;9.27;;;;;;;19.75;100.00;96977.22;4917336;29;20259;-54
2022/06/05 06:56:43;;;;;;;9.50;8.90;;;;;;;20.13;100.00;96979.34;4866671;29;20224;-51
2022/06/05 06:59:11;;;;;;;8.70;8.13;;;;;;;20.41;100.00;96978.31;4916192;29;20226;-53
2022/06/05 07:01:40;;;;;;;9.33;8.83;;;;;;;20.62;100.00;96973.13;4919411;29;20265;-57
2022/06/05 07:04:09;;;;;;;9.93;9.27;;;;;;;20.94;100.00;96969.69;4899187;28;20239;-57
2022/06/05 07:06:37;;;;;;;9.07;8.47;;;;;;;20.77;100.00;96970.59;4916398;29;20211;-58
2022/06/05 07:09:05;;;;;;;9.10;8.50;;;;;;;20.47;100.00;96963.03;4900160;29;20306;-60
2022/06/05 07:11:33;;;;;;;8.87;8.27;;;;;;;20.73;100.00;96969.47;4906446;29;20247;-58
2022/06/05 07:14:03;;;;;;;8.67;8.17;;;;;;;21.07;100.00;96963.06;4865946;29;22459;-61
2022/06/05 07:16:31;;;;;;;8.20;7.70;;;;;;;21.24;100.00;96963.75;4919841;29;20238;-57
2022/06/05 07:19:00;;;;;;;9.47;8.63;;;;;;;21.09;100.00;96961.75;4912876;29;20231;-61
2022/06/05 07:21:28;;;;;;;9.13;8.53;;;;;;;21.53;100.00;96967.97;4898382;29;20279;-56
2022/06/05 07:23:57;;;;;;;8.50;8.00;;;;;;;21.45;100.00;96968.44;4914045;28;20236;-60
2022/06/05 07:26:27;;;;;;;9.03;8.43;;;;;;;21.55;100.00;96960.44;4918043;29;20315;-61
2022/06/05 07:28:56;;;;;;;8.40;7.90;;;;;;;21.83;100.00;96955.75;4873018;29;20658;-60
2022/06/05 07:31:28;;;;;;;8.17;7.67;;;;;;;21.73;100.00;96972.69;4919723;29;20830;-57
2022/06/05 07:33:57;;;;;;;9.00;8.40;;;;;;;21.80;100.00;96975.16;4916793;28;20298;-60
2022/06/05 07:36:26;;;;;;;7.87;7.47;;;;;;;21.99;100.00;96962.03;4899124;29;20303;-59
2022/06/05 07:38:55;;;;;;;8.37;7.77;;;;;;;21.98;100.00;96965.81;4910864;29;20767;-60
2022/06/05 07:41:26;;;;;;;8.17;7.67;;;;;;;22.04;100.00;96966.63;4918455;29;20270;-59
2022/06/05 07:43:55;;;;;;;7.97;7.47;;;;;;;22.33;100.00;96968.88;4851629;28;20240;-62
2022/06/05 07:46:24;;;;;;;7.67;7.17;;;;;;;22.23;100.00;96967.78;4910669;29;20208;-60
2022/06/05 07:48:53;;;;;;;7.83;7.23;;;;;;;22.44;100.00;96980.53;4920399;29;20211;-64
2022/06/05 07:54:29;;;;;;;7.97;7.37;;;;;;;22.89;100.00;96979.00;4916927;28;20266;-61
2022/06/05 07:56:59;;;;;;;8.40;7.80;;;;;;;22.96;100.00;96966.03;4913135;29;20211;-56
2022/06/05 07:59:29;;;;;;;7.77;7.37;;;;;;;23.18;100.00;96973.06;4877975;29;21150;-59
2022/06/05 08:01:58;;;;;;;7.50;7.00;;;;;;;22.69;100.00;96963.59;4916656;29;20310;-59
2022/06/05 08:04:28;;;;;;;8.53;7.93;;;;;;;22.79;100.00;96968.22;4914343;29;20403;-55
2022/06/05 08:06:58;;;;;;;7.67;7.27;;;;;;;22.71;100.00;96972.25;4899368;29;20219;-58
2022/06/05 08:09:27;;;;;;;7.37;6.97;;;;;;;22.68;100.00;96970.06;4912767;29;20561;-54
2022/06/05 08:11:55;;;;;;;8.37;7.83;;;;;;;22.50;100.00;96974.88;4915401;28;20720;-58
2022/06/05 08:14:23;;;;;;;8.13;7.63;;;;;;;22.79;100.00;96973.59;4910011;29;20656;-58
2022/06/05 08:16:52;;;;;;;7.90;7.47;;;;;;;22.94;100.00;96983.63;4874849;29;20309;-55
2022/06/05 08:19:23;;;;;;;8.37;7.87;;;;;;;23.12;100.00;97004.69;4910164;29;20683;-58
2022/06/05 08:21:53;;;;;;;8.03;7.53;;;;;;;22.96;100.00;97017.38;4911871;29;20722;-58
2022/06/05 08:24:21;;;;;;;8.53;8.00;;;;;;;22.84;100.00;97036.53;4894478;29;20218;-59
2022/06/05 08:26:52;;;;;;;8.13;7.63;;;;;;;23.04;100.00;97045.75;4914354;29;20569;-58
2022/06/05 08:29:20;;;;;;;8.97;8.37;;;;;;;22.69;100.00;97056.19;4911338;29;20672;-57
2022/06/05 08:31:53;;;;;;;9.77;9.07;;;;;;;23.10;100.00;97077.09;4874497;29;20218;-56
2022/06/05 08:34:22;;;;;;;8.20;7.70;;;;;;;22.99;100.00;97091.69;4910259;29;20211;-58
2022/06/05 08:41:26;;;;;;;8.80;8.20;;;;;;;22.97;100.00;97115.44;4915641;29;20222;-58
2022/06/05 08:42:29;;;;;;;8.57;7.97;;;;;;;22.73;100.00;97153.72;4917224;28;20254;-60
2022/06/05 08:44:59;;;;;;;7.77;7.23;;;;;;;22.94;100.00;97159.19;4916343;29;20632;-57
2022/06/05 08:47:29;;;;;;;7.70;7.30;;;;;;;23.11;100.00;97148.97;4869742;29;20701;-56
2022/06/05 08:50:04;;;;;;;7.60;7.00;;;;;;;23.35;100.00;97148.53;4915361;29;20219;-56
2022/06/05 08:52:42;;;;;;;7.07;6.57;;;;;;;23.65;100.00;97167.75;4910193;28;20315;-54
2022/06/05 08:55:14;;;;;;;7.57;7.13;;;;;;;23.58;100.00;97178.03;4892739;29;20246;-59
2022/06/05 08:57:46;;;;;;;8.23;7.73;;;;;;;23.29;100.00;97187.41;4918129;29;20215;-57
2022/06/05 09:00:19;;;;;;;7.83;7.43;;;;;;;22.91;100.00;97184.00;4914373;29;20315;-58
2022/06/05 09:02:50;;;;;;;6.97;6.57;;;;;;;22.92;100.00;97177.53;4870525;29;20227;-59
2022/06/05 09:05:22;;;;;;;7.63;7.17;;;;;;;22.78;100.00;97182.63;4912353;29;20219;-62
2022/06/05 09:07:54;;;;;;;7.90;7.33;;;;;;;22.46;100.00;97187.03;4913634;29;20269;-62
2022/06/05 09:10:33;;;;;;;8.63;8.00;;;;;;;22.63;100.00;97186.06;4899578;29;20233;-62
2022/06/05 09:13:05;;;;;;;8.53;7.90;;;;;;;22.41;100.00;97186.97;4913569;29;20556;-55
2022/06/05 09:15:37;;;;;;;9.10;8.50;;;;;;;22.54;100.00;97181.16;4913270;29;20505;-57
2022/06/05 09:18:12;;;;;;;8.87;8.17;;;;;;;22.29;100.00;97180.97;4876096;29;20703;-60
2022/06/05 09:20:47;;;;;;;7.60;7.20;;;;;;;22.23;100.00;97170.16;4916412;29;20308;-55
2022/06/05 09:23:21;;;;;;;8.00;7.50;;;;;;;22.07;100.00;97168.41;4917536;28;20234;-60
2022/06/05 09:26:02;;;;;;;7.73;7.23;;;;;;;21.85;100.00;97168.50;4898353;29;20788;-60
2022/06/05 09:28:54;;;;;;;8.33;7.80;;;;;;;21.89;100.00;97161.53;4920381;29;20211;-54
2022/06/05 09:31:49;;;;;;;8.40;7.80;;;;;;;21.71;100.00;97158.16;4915887;29;20733;-57
2022/06/05 09:34:20;;;;;;;7.10;6.57;;;;;;;21.37;100.00;97145.69;4843674;29;20306;-59
2022/06/05 09:36:57;;;;;;;8.57;8.07;;;;;;;21.31;100.00;97135.94;4918498;29;20274;-59
2022/06/05 09:39:31;;;;;;;7.43;6.93;;;;;;;21.03;100.00;97128.94;4912840;29;20955;-54
2022/06/05 09:42:40;;;;;;;8.60;8.03;;;;;;;20.70;100.00;97128.81;4906148;28;20317;-57
2022/06/05 09:45:19;;;;;;;8.67;8.17;;;;;;;20.71;100.00;97133.13;4915487;29;20762;-57
2022/06/05 09:47:55;;;;;;;8.70;8.10;;;;;;;20.62;100.00;97107.69;4915077;29;20212;-61
2022/06/05 09:50:26;;;;;;;8.30;7.80;;;;;;;20.45;100.00;97097.81;4875781;28;21493;-60
2022/06/05 09:52:55;;;;;;;8.10;7.60;;;;;;;20.49;100.00;97079.31;4920258;29;20326;-56
2022/06/05 09:55:36;;;;;;;8.00;7.50;;;;;;;20.38;100.00;97064.91;4914473;29;20263;-58
2022/06/05 09:58:25;;;;;;;8.40;7.90;;;;;;;20.08;100.00;97033.88;4904224;29;20210;-61
2022/06/05 10:00:55;;;;;;;8.30;7.73;;;;;;;20.15;100.00;97002.22;4921512;29;20799;-53
2022/06/05 10:03:28;;;;;;;8.60;8.00;;;;;;;19.93;100.00;96972.63;4913163;29;20377;-59
2022/06/05 10:06:23;;;;;;;8.33;7.70;;;;;;;19.77;100.00;96944.72;4874277;29;20220;-57
2022/06/05 10:08:54;;;;;;;8.67;7.97;;;;;;;19.99;100.00;96923.22;4899094;29;20216;-60
2022/06/05 10:11:29;;;;;;;14.83;9.73;;;;;;;20.09;100.00;96931.44;4913115;29;20220;-60
2022/06/05 10:14:06;;;;;;;10.20;9.23;;;;;;;20.57;100.00;96951.53;4901139;29;20289;-59
2022/06/05 10:16:38;;;;;;;9.60;8.80;;;;;;;20.82;100.00;96965.28;4916305;29;20707;-55
2022/06/05 10:19:26;;;;;;;8.70;8.20;;;;;;;21.54;100.00;96961.50;4912973;29;20318;-60
2022/06/05 10:22:00;;;;;;;8.37;7.67;;;;;;;22.29;100.00;96965.09;4910521;28;20330;-61
2022/06/05 10:24:38;;;;;;;7.77;7.27;;;;;;;22.52;100.00;96951.13;4911438;29;20716;-58
2022/06/05 10:27:07;;;;;;;8.03;7.53;;;;;;;22.70;100.00;96944.41;4919724;29;20313;-61
2022/06/05 10:29:39;;;;;;;8.30;7.80;;;;;;;22.96;100.00;96951.75;4901897;29;20867;-55
2022/06/05 10:32:12;;;;;;;8.80;8.27;;;;;;;22.74;100.00;96952.78;4917179;28;20301;-61
2022/06/05 10:34:46;;;;;;;8.07;7.57;;;;;;;23.15;100.00;96956.59;4916922;29;20282;-60
2022/06/05 10:37:21;;;;;;;9.20;8.40;;;;;;;23.66;100.00;96945.72;4869500;29;20759;-60
2022/06/05 10:39:59;;;;;;;8.10;7.50;;;;;;;23.73;100.00;96944.63;4917409;29;20306;-61
2022/06/05 10:42:37;;;;;;;8.40;7.90;;;;;;;23.77;100.00;96954.59;4909901;29;20422;-60
2022/06/05 10:45:35;;;;;;;9.10;8.60;;;;;;;23.59;100.00;96950.59;4919358;29;20259;-59
2022/06/05 10:48:11;;;;;;;10.00;9.40;;;;;;;24.17;100.00;96941.22;4914661;29;20656;-57
2022/06/05 10:50:47;;;;;;;9.67;9.07;;;;;;;24.28;100.00;96934.66;4869572;29;21425;-57
2022/06/05 10:53:19;;;;;;;9.50;8.90;;;;;;;24.39;100.00;96923.78;4915992;29;20730;-60
2022/06/05 10:56:00;;;;;;;9.13;8.63;;;;;;;24.46;100.00;96908.03;4918856;29;20331;-61
2022/06/05 10:58:35;;;;;;;9.67;9.07;;;;;;;25.12;100.00;96910.53;4917033;29;20917;-62
2022/06/05 11:01:07;;;;;;;10.33;9.63;;;;;;;25.22;100.00;96904.22;4914355;29;20254;-58
2022/06/05 11:03:41;;;;;;;10.40;9.70;;;;;;;25.20;100.00;96901.78;4898122;28;20255;-59
2022/06/05 11:06:24;;;;;;;10.17;9.43;;;;;;;26.01;100.00;96894.91;4905864;29;20207;-60
2022/06/05 11:09:01;;;;;;;9.30;8.77;;;;;;;26.24;100.00;96893.28;4918719;28;20199;-54
2022/06/05 11:14:28;;;;;;;9.30;8.80;;;;;;;26.21;100.00;96893.88;4913369;29;20592;-58
2022/06/05 11:17:05;;;;;;;8.93;8.37;;;;;;;26.57;100.00;96890.63;4912885;29;20701;-54
2022/06/05 11:19:39;;;;;;;10.17;9.57;;;;;;;25.84;100.00;96892.69;4897177;29;20795;-58
2022/06/05 11:22:13;;;;;;;9.10;8.50;;;;;;;26.42;100.00;96912.59;4918024;28;20259;-61
2022/06/05 11:24:45;;;;;;;8.77;8.17;;;;;;;26.17;100.00;96922.69;4896850;29;20222;-60
2022/06/05 11:27:18;;;;;;;8.37;7.87;;;;;;;26.05;100.00;96920.38;4911875;29;20638;-60
2022/06/05 11:29:57;;;;;;;8.23;7.73;;;;;;;25.47;100.00;96915.91;4914854;29;20216;-57
2022/06/05 11:32:40;;;;;;;8.70;8.00;;;;;;;24.93;100.00;96905.81;4893693;28;20279;-55
2022/06/05 11:35:21;;;;;;;8.77;8.27;;;;;;;24.66;100.00;96898.16;4915463;29;20767;-57
2022/06/05 11:37:57;;;;;;;8.90;8.40;;;;;;;24.21;100.00;96900.88;4916211;29;20279;-58
2022/06/05 11:40:36;;;;;;;10.00;9.40;;;;;;;23.89;100.00;96894.78;4865834;29;20390;-54
2022/06/05 11:43:23;;;;;;;9.17;8.57;;;;;;;23.89;100.00;96894.78;4912121;29;20343;-59
2022/06/05 11:46:21;;;;;;;9.13;8.53;;;;;;;24.00;100.00;96890.13;4919263;29;20221;-59
2022/06/05 11:48:53;;;;;;;10.27;9.47;;;;;;;24.01;100.00;96878.25;4895184;28;20212;-61
2022/06/05 11:51:25;;;;;;;9.43;8.73;;;;;;;23.96;100.00;96872.84;4913457;29;20219;-58
2022/06/05 11:54:03;;;;;;;9.93;9.17;;;;;;;24.16;100.00;96863.00;4911501;29;20361;-57
2022/06/05 11:56:41;;;;;;;10.03;9.43;;;;;;;24.68;100.00;96867.00;4868737;28;20307;-57
2022/06/05 11:59:29;;;;;;;9.30;8.70;;;;;;;24.65;100.00;96862.13;4915721;29;20222;-59